sensor_id;sensor_type;location;lat;lon;timestamp;P1;durP1;ratioP1;P2;durP2;ratioP2
48849;SDS011;63210;53.370;6.770;2022-09-09T00:01:04;12.15;;;9.93;;
48849;SDS011;63210;53.370;6.770;2022-09-09T00:03:43;16.40;;;10.93;;
48849;SDS011;63210;53.370;6.770;2022-09-09T00:06:21;15.75;;;10.10;;
48849;SDS011;63210;53.370;6.770;2022-09-09T00:08:56;12.30;;;9.95;;
48849;SDS011;63210;53.370;6.770;2022-09-09T00:11:27;14.25;;;11.93;;
48849;SDS011;63210;53.370;6.770;2022-09-09T00:13:53;14.20;;;11.25;;
48849;SDS011;63210;53.370;6.770;2022-09-09T00:16:24;13.32;;;10.43;;
48849;SDS011;63210;53.370;6.770;2022-09-09T00:21:19;22.33;;;10.63;;
48849;SDS011;63210;53.370;6.770;2022-09-09T00:23:52;14.30;;;11.45;;
48849;SDS011;63210;53.370;6.770;2022-09-09T00:27:01;11.43;;;9.90;;
48849;SDS011;63210;53.370;6.770;2022-09-09T00:29:14;14.10;;;10.48;;
48849;SDS011;63210;53.370;6.770;2022-09-09T00:31:40;16.05;;;11.82;;
48849;SDS011;63210;53.370;6.770;2022-09-09T00:34:11;18.63;;;12.13;;
48849;SDS011;63210;53.370;6.770;2022-09-09T00:36:38;20.73;;;12.50;;
48849;SDS011;63210;53.370;6.770;2022-09-09T00:39:03;15.52;;;12.07;;
48849;SDS011;63210;53.370;6.770;2022-09-09T00:41:39;13.43;;;11.57;;
48849;SDS011;63210;53.370;6.770;2022-09-09T00:46:56;20.33;;;12.90;;
48849;SDS011;63210;53.370;6.770;2022-09-09T00:49:43;15.93;;;10.95;;
48849;SDS011;63210;53.370;6.770;2022-09-09T00:52:17;13.38;;;11.07;;
48849;SDS011;63210;53.370;6.770;2022-09-09T00:59:48;19.45;;;13.52;;
48849;SDS011;63210;53.370;6.770;2022-09-09T01:02:36;17.05;;;12.68;;
48849;SDS011;63210;53.370;6.770;2022-09-09T01:05:06;17.30;;;12.52;;
48849;SDS011;63210;53.370;6.770;2022-09-09T01:07:32;16.77;;;12.18;;
48849;SDS011;63210;53.370;6.770;2022-09-09T01:09:58;20.30;;;13.45;;
48849;SDS011;63210;53.370;6.770;2022-09-09T01:14:51;17.38;;;13.07;;
48849;SDS011;63210;53.370;6.770;2022-09-09T01:22:17;16.97;;;12.73;;
48849;SDS011;63210;53.370;6.770;2022-09-09T01:27:28;19.17;;;13.18;;
48849;SDS011;63210;53.370;6.770;2022-09-09T01:29:54;18.90;;;12.30;;
48849;SDS011;63210;53.370;6.770;2022-09-09T01:32:37;17.55;;;12.55;;
48849;SDS011;63210;53.370;6.770;2022-09-09T01:35:03;21.17;;;14.48;;
48849;SDS011;63210;53.370;6.770;2022-09-09T01:37:29;18.13;;;12.70;;
48849;SDS011;63210;53.370;6.770;2022-09-09T01:39:54;16.37;;;12.67;;
48849;SDS011;63210;53.370;6.770;2022-09-09T01:42:19;21.40;;;13.57;;
48849;SDS011;63210;53.370;6.770;2022-09-09T01:44:44;19.40;;;14.10;;
48849;SDS011;63210;53.370;6.770;2022-09-09T01:47:10;22.02;;;14.70;;
48849;SDS011;63210;53.370;6.770;2022-09-09T01:49:35;18.23;;;12.95;;
48849;SDS011;63210;53.370;6.770;2022-09-09T01:52:00;14.05;;;12.45;;
48849;SDS011;63210;53.370;6.770;2022-09-09T01:54:27;15.98;;;13.98;;
48849;SDS011;63210;53.370;6.770;2022-09-09T01:59:39;17.58;;;12.15;;
48849;SDS011;63210;53.370;6.770;2022-09-09T02:02:24;20.17;;;11.63;;
48849;SDS011;63210;53.370;6.770;2022-09-09T02:04:55;23.85;;;14.43;;
48849;SDS011;63210;53.370;6.770;2022-09-09T02:10:05;13.00;;;11.30;;
48849;SDS011;63210;53.370;6.770;2022-09-09T02:12:33;20.83;;;13.07;;
48849;SDS011;63210;53.370;6.770;2022-09-09T02:15:02;15.70;;;11.80;;
48849;SDS011;63210;53.370;6.770;2022-09-09T02:17:30;16.40;;;12.10;;
48849;SDS011;63210;53.370;6.770;2022-09-09T02:20:14;19.35;;;12.77;;
48849;SDS011;63210;53.370;6.770;2022-09-09T02:22:40;19.73;;;12.75;;
48849;SDS011;63210;53.370;6.770;2022-09-09T02:25:07;21.55;;;11.75;;
48849;SDS011;63210;53.370;6.770;2022-09-09T02:27:33;20.52;;;13.27;;
48849;SDS011;63210;53.370;6.770;2022-09-09T02:29:59;19.42;;;13.25;;
48849;SDS011;63210;53.370;6.770;2022-09-09T02:32:27;17.58;;;13.57;;
48849;SDS011;63210;53.370;6.770;2022-09-09T02:35:12;15.90;;;12.05;;
48849;SDS011;63210;53.370;6.770;2022-09-09T02:37:39;20.38;;;12.25;;
48849;SDS011;63210;53.370;6.770;2022-09-09T02:40:06;16.35;;;12.77;;
48849;SDS011;63210;53.370;6.770;2022-09-09T02:42:37;21.92;;;13.25;;
48849;SDS011;63210;53.370;6.770;2022-09-09T02:45:03;16.85;;;13.52;;
48849;SDS011;63210;53.370;6.770;2022-09-09T02:47:35;20.52;;;12.55;;
48849;SDS011;63210;53.370;6.770;2022-09-09T02:50:22;21.38;;;13.90;;
48849;SDS011;63210;53.370;6.770;2022-09-09T02:55:56;23.17;;;14.03;;
48849;SDS011;63210;53.370;6.770;2022-09-09T02:58:02;17.70;;;12.85;;
48849;SDS011;63210;53.370;6.770;2022-09-09T03:00:31;18.52;;;13.27;;
48849;SDS011;63210;53.370;6.770;2022-09-09T03:02:57;18.88;;;12.95;;
48849;SDS011;63210;53.370;6.770;2022-09-09T03:05:22;22.52;;;13.38;;
48849;SDS011;63210;53.370;6.770;2022-09-09T03:07:48;18.40;;;13.80;;
48849;SDS011;63210;53.370;6.770;2022-09-09T03:10:15;22.98;;;14.77;;
48849;SDS011;63210;53.370;6.770;2022-09-09T03:12:41;17.35;;;12.82;;
48849;SDS011;63210;53.370;6.770;2022-09-09T03:15:06;19.83;;;13.07;;
48849;SDS011;63210;53.370;6.770;2022-09-09T03:17:32;21.13;;;14.40;;
48849;SDS011;63210;53.370;6.770;2022-09-09T03:19:57;20.87;;;14.23;;
48849;SDS011;63210;53.370;6.770;2022-09-09T03:22:24;18.55;;;13.57;;
48849;SDS011;63210;53.370;6.770;2022-09-09T03:24:50;19.23;;;13.73;;
48849;SDS011;63210;53.370;6.770;2022-09-09T03:27:15;22.35;;;14.07;;
48849;SDS011;63210;53.370;6.770;2022-09-09T03:29:41;24.30;;;13.95;;
48849;SDS011;63210;53.370;6.770;2022-09-09T03:32:06;19.30;;;14.00;;
48849;SDS011;63210;53.370;6.770;2022-09-09T03:34:31;18.95;;;13.15;;
48849;SDS011;63210;53.370;6.770;2022-09-09T03:36:56;19.45;;;14.20;;
48849;SDS011;63210;53.370;6.770;2022-09-09T03:39:22;19.67;;;13.33;;
48849;SDS011;63210;53.370;6.770;2022-09-09T03:41:47;17.17;;;12.15;;
48849;SDS011;63210;53.370;6.770;2022-09-09T03:44:13;22.75;;;13.68;;
48849;SDS011;63210;53.370;6.770;2022-09-09T03:46:38;24.50;;;14.80;;
48849;SDS011;63210;53.370;6.770;2022-09-09T03:49:04;18.80;;;13.07;;
48849;SDS011;63210;53.370;6.770;2022-09-09T03:51:29;23.33;;;14.40;;
48849;SDS011;63210;53.370;6.770;2022-09-09T03:53:55;20.52;;;13.32;;
48849;SDS011;63210;53.370;6.770;2022-09-09T03:56:21;18.45;;;13.55;;
48849;SDS011;63210;53.370;6.770;2022-09-09T03:58:47;24.67;;;14.52;;
48849;SDS011;63210;53.370;6.770;2022-09-09T04:01:12;19.77;;;13.37;;
48849;SDS011;63210;53.370;6.770;2022-09-09T04:03:38;22.58;;;15.45;;
48849;SDS011;63210;53.370;6.770;2022-09-09T04:06:04;16.95;;;12.85;;
48849;SDS011;63210;53.370;6.770;2022-09-09T04:08:31;23.20;;;14.82;;
48849;SDS011;63210;53.370;6.770;2022-09-09T04:10:56;25.55;;;15.15;;
48849;SDS011;63210;53.370;6.770;2022-09-09T04:13:23;16.05;;;12.85;;
48849;SDS011;63210;53.370;6.770;2022-09-09T04:15:52;19.95;;;13.52;;
48849;SDS011;63210;53.370;6.770;2022-09-09T04:18:17;17.15;;;12.30;;
48849;SDS011;63210;53.370;6.770;2022-09-09T04:20:45;18.27;;;12.48;;
48849;SDS011;63210;53.370;6.770;2022-09-09T04:23:10;17.38;;;11.45;;
48849;SDS011;63210;53.370;6.770;2022-09-09T04:25:36;15.27;;;12.57;;
48849;SDS011;63210;53.370;6.770;2022-09-09T04:28:02;18.35;;;11.63;;
48849;SDS011;63210;53.370;6.770;2022-09-09T04:30:28;17.38;;;11.18;;
48849;SDS011;63210;53.370;6.770;2022-09-09T04:32:53;16.02;;;10.70;;
48849;SDS011;63210;53.370;6.770;2022-09-09T04:35:19;17.25;;;10.70;;
48849;SDS011;63210;53.370;6.770;2022-09-09T04:37:45;16.75;;;10.30;;
48849;SDS011;63210;53.370;6.770;2022-09-09T04:40:10;16.08;;;9.98;;
48849;SDS011;63210;53.370;6.770;2022-09-09T04:42:35;18.80;;;10.10;;
48849;SDS011;63210;53.370;6.770;2022-09-09T04:45:01;16.48;;;10.07;;
48849;SDS011;63210;53.370;6.770;2022-09-09T04:47:26;13.98;;;9.65;;
48849;SDS011;63210;53.370;6.770;2022-09-09T04:49:52;15.43;;;10.65;;
48849;SDS011;63210;53.370;6.770;2022-09-09T04:52:19;11.88;;;9.07;;
48849;SDS011;63210;53.370;6.770;2022-09-09T04:54:44;12.48;;;9.02;;
48849;SDS011;63210;53.370;6.770;2022-09-09T04:57:10;16.60;;;9.10;;
48849;SDS011;63210;53.370;6.770;2022-09-09T04:59:35;11.63;;;8.40;;
48849;SDS011;63210;53.370;6.770;2022-09-09T05:02:00;14.83;;;6.67;;
48849;SDS011;63210;53.370;6.770;2022-09-09T05:04:27;11.15;;;7.53;;
48849;SDS011;63210;53.370;6.770;2022-09-09T05:06:53;10.57;;;5.70;;
48849;SDS011;63210;53.370;6.770;2022-09-09T05:09:19;12.60;;;6.30;;
48849;SDS011;63210;53.370;6.770;2022-09-09T05:11:44;9.48;;;6.20;;
48849;SDS011;63210;53.370;6.770;2022-09-09T05:14:09;14.10;;;5.40;;
48849;SDS011;63210;53.370;6.770;2022-09-09T05:16:36;12.85;;;5.95;;
48849;SDS011;63210;53.370;6.770;2022-09-09T05:19:01;9.73;;;5.07;;
48849;SDS011;63210;53.370;6.770;2022-09-09T05:21:28;12.35;;;5.50;;
48849;SDS011;63210;53.370;6.770;2022-09-09T05:23:54;11.35;;;5.25;;
48849;SDS011;63210;53.370;6.770;2022-09-09T05:26:20;9.35;;;4.15;;
48849;SDS011;63210;53.370;6.770;2022-09-09T05:28:46;13.32;;;5.20;;
48849;SDS011;63210;53.370;6.770;2022-09-09T05:31:12;11.63;;;5.35;;
48849;SDS011;63210;53.370;6.770;2022-09-09T05:33:38;8.35;;;4.97;;
48849;SDS011;63210;53.370;6.770;2022-09-09T05:36:06;12.25;;;6.47;;
48849;SDS011;63210;53.370;6.770;2022-09-09T05:38:33;13.02;;;7.13;;
48849;SDS011;63210;53.370;6.770;2022-09-09T05:40:58;12.40;;;6.38;;
48849;SDS011;63210;53.370;6.770;2022-09-09T05:43:24;14.00;;;6.95;;
48849;SDS011;63210;53.370;6.770;2022-09-09T05:46:00;11.45;;;6.65;;
48849;SDS011;63210;53.370;6.770;2022-09-09T05:48:30;16.95;;;7.80;;
48849;SDS011;63210;53.370;6.770;2022-09-09T05:50:55;11.70;;;7.05;;
48849;SDS011;63210;53.370;6.770;2022-09-09T05:53:21;14.65;;;7.10;;
48849;SDS011;63210;53.370;6.770;2022-09-09T05:55:46;12.43;;;7.30;;
48849;SDS011;63210;53.370;6.770;2022-09-09T05:58:12;12.80;;;7.57;;
48849;SDS011;63210;53.370;6.770;2022-09-09T06:00:38;12.18;;;7.78;;
48849;SDS011;63210;53.370;6.770;2022-09-09T06:03:03;12.20;;;7.63;;
48849;SDS011;63210;53.370;6.770;2022-09-09T06:05:28;11.82;;;7.85;;
48849;SDS011;63210;53.370;6.770;2022-09-09T06:07:54;11.15;;;7.75;;
48849;SDS011;63210;53.370;6.770;2022-09-09T06:10:20;12.20;;;8.55;;
48849;SDS011;63210;53.370;6.770;2022-09-09T06:12:45;11.40;;;9.10;;
48849;SDS011;63210;53.370;6.770;2022-09-09T06:15:10;14.53;;;8.23;;
48849;SDS011;63210;53.370;6.770;2022-09-09T06:17:35;12.73;;;8.57;;
48849;SDS011;63210;53.370;6.770;2022-09-09T06:20:01;13.43;;;9.05;;
48849;SDS011;63210;53.370;6.770;2022-09-09T06:22:26;11.90;;;7.72;;
48849;SDS011;63210;53.370;6.770;2022-09-09T06:24:52;13.80;;;9.07;;
48849;SDS011;63210;53.370;6.770;2022-09-09T06:27:18;15.70;;;8.90;;
48849;SDS011;63210;53.370;6.770;2022-09-09T06:29:46;10.35;;;8.43;;
48849;SDS011;63210;53.370;6.770;2022-09-09T06:32:13;12.45;;;9.68;;
48849;SDS011;63210;53.370;6.770;2022-09-09T06:34:38;10.77;;;8.82;;
48849;SDS011;63210;53.370;6.770;2022-09-09T06:37:03;19.00;;;11.35;;
48849;SDS011;63210;53.370;6.770;2022-09-09T06:39:29;12.45;;;9.70;;
48849;SDS011;63210;53.370;6.770;2022-09-09T06:41:54;13.20;;;9.73;;
48849;SDS011;63210;53.370;6.770;2022-09-09T06:44:20;13.40;;;9.95;;
48849;SDS011;63210;53.370;6.770;2022-09-09T06:46:45;12.93;;;10.40;;
48849;SDS011;63210;53.370;6.770;2022-09-09T06:49:13;15.65;;;10.70;;
48849;SDS011;63210;53.370;6.770;2022-09-09T06:51:38;14.90;;;10.30;;
48849;SDS011;63210;53.370;6.770;2022-09-09T06:54:08;14.80;;;10.32;;
48849;SDS011;63210;53.370;6.770;2022-09-09T06:56:34;16.77;;;11.40;;
48849;SDS011;63210;53.370;6.770;2022-09-09T06:59:01;13.27;;;9.60;;
48849;SDS011;63210;53.370;6.770;2022-09-09T07:01:47;13.10;;;10.07;;
48849;SDS011;63210;53.370;6.770;2022-09-09T07:04:12;12.70;;;9.80;;
48849;SDS011;63210;53.370;6.770;2022-09-09T07:06:41;11.75;;;9.15;;
48849;SDS011;63210;53.370;6.770;2022-09-09T07:09:08;14.98;;;9.52;;
48849;SDS011;63210;53.370;6.770;2022-09-09T07:11:37;13.52;;;9.60;;
48849;SDS011;63210;53.370;6.770;2022-09-09T07:14:02;14.50;;;10.43;;
48849;SDS011;63210;53.370;6.770;2022-09-09T07:16:28;14.60;;;9.75;;
48849;SDS011;63210;53.370;6.770;2022-09-09T07:18:54;11.10;;;9.57;;
48849;SDS011;63210;53.370;6.770;2022-09-09T07:21:23;12.75;;;9.20;;
48849;SDS011;63210;53.370;6.770;2022-09-09T07:23:49;12.02;;;9.48;;
48849;SDS011;63210;53.370;6.770;2022-09-09T07:26:16;12.20;;;9.43;;
48849;SDS011;63210;53.370;6.770;2022-09-09T07:28:42;14.30;;;8.80;;
48849;SDS011;63210;53.370;6.770;2022-09-09T07:31:08;14.25;;;9.35;;
48849;SDS011;63210;53.370;6.770;2022-09-09T07:33:38;15.52;;;11.10;;
48849;SDS011;63210;53.370;6.770;2022-09-09T07:36:08;14.32;;;7.93;;
48849;SDS011;63210;53.370;6.770;2022-09-09T07:38:41;11.63;;;8.93;;
48849;SDS011;63210;53.370;6.770;2022-09-09T07:41:08;11.73;;;8.15;;
48849;SDS011;63210;53.370;6.770;2022-09-09T07:43:43;12.45;;;9.52;;
48849;SDS011;63210;53.370;6.770;2022-09-09T07:46:09;12.45;;;9.07;;
48849;SDS011;63210;53.370;6.770;2022-09-09T07:48:35;11.70;;;8.95;;
48849;SDS011;63210;53.370;6.770;2022-09-09T07:51:04;9.55;;;8.65;;
48849;SDS011;63210;53.370;6.770;2022-09-09T07:53:31;13.17;;;8.97;;
48849;SDS011;63210;53.370;6.770;2022-09-09T07:56:01;10.30;;;8.25;;
48849;SDS011;63210;53.370;6.770;2022-09-09T07:58:26;10.20;;;7.80;;
48849;SDS011;63210;53.370;6.770;2022-09-09T08:00:52;9.27;;;7.90;;
48849;SDS011;63210;53.370;6.770;2022-09-09T08:03:17;11.07;;;8.77;;
48849;SDS011;63210;53.370;6.770;2022-09-09T08:05:42;10.13;;;7.60;;
48849;SDS011;63210;53.370;6.770;2022-09-09T08:08:08;11.30;;;8.10;;
48849;SDS011;63210;53.370;6.770;2022-09-09T08:10:34;11.23;;;7.70;;
48849;SDS011;63210;53.370;6.770;2022-09-09T08:12:59;13.65;;;8.00;;
48849;SDS011;63210;53.370;6.770;2022-09-09T08:15:24;10.80;;;7.97;;
48849;SDS011;63210;53.370;6.770;2022-09-09T08:17:49;10.27;;;8.23;;
48849;SDS011;63210;53.370;6.770;2022-09-09T08:20:15;11.73;;;8.67;;
48849;SDS011;63210;53.370;6.770;2022-09-09T08:22:40;9.20;;;7.78;;
48849;SDS011;63210;53.370;6.770;2022-09-09T08:25:07;10.30;;;7.43;;
48849;SDS011;63210;53.370;6.770;2022-09-09T08:27:33;11.55;;;8.13;;
48849;SDS011;63210;53.370;6.770;2022-09-09T08:29:58;10.80;;;7.82;;
48849;SDS011;63210;53.370;6.770;2022-09-09T08:32:24;8.00;;;7.13;;
48849;SDS011;63210;53.370;6.770;2022-09-09T08:34:49;9.80;;;7.00;;
48849;SDS011;63210;53.370;6.770;2022-09-09T08:37:14;10.98;;;6.55;;
48849;SDS011;63210;53.370;6.770;2022-09-09T08:39:39;10.27;;;6.82;;
48849;SDS011;63210;53.370;6.770;2022-09-09T08:42:22;10.52;;;6.60;;
48849;SDS011;63210;53.370;6.770;2022-09-09T08:52:39;7.30;;;5.68;;
48849;SDS011;63210;53.370;6.770;2022-09-09T09:00:36;7.83;;;4.80;;
48849;SDS011;63210;53.370;6.770;2022-09-09T09:05:33;7.53;;;4.70;;
48849;SDS011;63210;53.370;6.770;2022-09-09T09:08:07;8.25;;;5.05;;
48849;SDS011;63210;53.370;6.770;2022-09-09T09:10:48;8.05;;;4.57;;
48849;SDS011;63210;53.370;6.770;2022-09-09T09:13:18;7.55;;;3.88;;
48849;SDS011;63210;53.370;6.770;2022-09-09T09:15:46;6.68;;;3.97;;
48849;SDS011;63210;53.370;6.770;2022-09-09T09:18:14;5.90;;;3.78;;
48849;SDS011;63210;53.370;6.770;2022-09-09T09:20:42;6.47;;;4.22;;
48849;SDS011;63210;53.370;6.770;2022-09-09T09:23:12;6.32;;;4.15;;
48849;SDS011;63210;53.370;6.770;2022-09-09T09:25:40;10.82;;;3.70;;
48849;SDS011;63210;53.370;6.770;2022-09-09T09:28:17;6.95;;;3.67;;
48849;SDS011;63210;53.370;6.770;2022-09-09T09:30:46;7.95;;;4.10;;
48849;SDS011;63210;53.370;6.770;2022-09-09T09:35:41;6.88;;;4.07;;
48849;SDS011;63210;53.370;6.770;2022-09-09T09:38:16;10.43;;;4.80;;
48849;SDS011;63210;53.370;6.770;2022-09-09T09:40:49;7.10;;;4.03;;
48849;SDS011;63210;53.370;6.770;2022-09-09T09:43:18;10.55;;;3.67;;
48849;SDS011;63210;53.370;6.770;2022-09-09T09:45:45;8.43;;;3.90;;
48849;SDS011;63210;53.370;6.770;2022-09-09T09:48:11;7.90;;;3.90;;
48849;SDS011;63210;53.370;6.770;2022-09-09T09:50:46;7.07;;;4.05;;
48849;SDS011;63210;53.370;6.770;2022-09-09T09:53:22;6.55;;;3.83;;
48849;SDS011;63210;53.370;6.770;2022-09-09T09:56:01;8.77;;;4.13;;
48849;SDS011;63210;53.370;6.770;2022-09-09T09:58:29;5.50;;;4.20;;
48849;SDS011;63210;53.370;6.770;2022-09-09T10:00:57;7.18;;;3.90;;
48849;SDS011;63210;53.370;6.770;2022-09-09T10:03:32;8.18;;;4.22;;
48849;SDS011;63210;53.370;6.770;2022-09-09T10:06:02;6.72;;;4.20;;
48849;SDS011;63210;53.370;6.770;2022-09-09T10:08:27;8.25;;;3.75;;
48849;SDS011;63210;53.370;6.770;2022-09-09T10:16:31;7.93;;;3.88;;
48849;SDS011;63210;53.370;6.770;2022-09-09T10:19:01;7.78;;;3.47;;
48849;SDS011;63210;53.370;6.770;2022-09-09T10:31:47;10.50;;;4.30;;
48849;SDS011;63210;53.370;6.770;2022-09-09T10:37:00;9.18;;;3.55;;
48849;SDS011;63210;53.370;6.770;2022-09-09T10:42:05;9.82;;;3.33;;
48849;SDS011;63210;53.370;6.770;2022-09-09T10:49:57;9.43;;;2.95;;
48849;SDS011;63210;53.370;6.770;2022-09-09T10:55:00;9.13;;;3.70;;
48849;SDS011;63210;53.370;6.770;2022-09-09T10:59:54;9.40;;;3.15;;
48849;SDS011;63210;53.370;6.770;2022-09-09T11:02:28;7.75;;;2.72;;
48849;SDS011;63210;53.370;6.770;2022-09-09T11:07:44;9.48;;;2.80;;
48849;SDS011;63210;53.370;6.770;2022-09-09T11:12:41;8.75;;;2.58;;
48849;SDS011;63210;53.370;6.770;2022-09-09T11:15:20;8.57;;;2.28;;
48849;SDS011;63210;53.370;6.770;2022-09-09T11:17:51;13.27;;;2.65;;
48849;SDS011;63210;53.370;6.770;2022-09-09T11:22:54;5.30;;;1.73;;
48849;SDS011;63210;53.370;6.770;2022-09-09T11:25:32;9.48;;;2.60;;
48849;SDS011;63210;53.370;6.770;2022-09-09T11:33:13;8.07;;;2.30;;
48849;SDS011;63210;53.370;6.770;2022-09-09T11:36:01;14.30;;;2.65;;
48849;SDS011;63210;53.370;6.770;2022-09-09T11:38:44;7.68;;;2.15;;
48849;SDS011;63210;53.370;6.770;2022-09-09T11:41:10;9.27;;;1.85;;
48849;SDS011;63210;53.370;6.770;2022-09-09T11:43:40;9.82;;;2.08;;
48849;SDS011;63210;53.370;6.770;2022-09-09T11:46:06;8.07;;;2.00;;
48849;SDS011;63210;53.370;6.770;2022-09-09T11:48:42;6.88;;;1.50;;
48849;SDS011;63210;53.370;6.770;2022-09-09T11:51:24;5.20;;;1.77;;
48849;SDS011;63210;53.370;6.770;2022-09-09T11:53:54;6.00;;;1.85;;
48849;SDS011;63210;53.370;6.770;2022-09-09T11:56:27;6.50;;;1.52;;
48849;SDS011;63210;53.370;6.770;2022-09-09T11:58:54;4.05;;;1.60;;
48849;SDS011;63210;53.370;6.770;2022-09-09T12:01:27;6.28;;;1.67;;
48849;SDS011;63210;53.370;6.770;2022-09-09T12:04:10;8.55;;;2.30;;
48849;SDS011;63210;53.370;6.770;2022-09-09T12:11:52;6.18;;;1.40;;
48849;SDS011;63210;53.370;6.770;2022-09-09T12:14:22;5.90;;;1.30;;
48849;SDS011;63210;53.370;6.770;2022-09-09T12:16:47;7.90;;;1.50;;
48849;SDS011;63210;53.370;6.770;2022-09-09T12:19:18;8.40;;;1.58;;
48849;SDS011;63210;53.370;6.770;2022-09-09T12:24:35;5.50;;;1.63;;
48849;SDS011;63210;53.370;6.770;2022-09-09T12:27:12;11.45;;;1.58;;
48849;SDS011;63210;53.370;6.770;2022-09-09T12:29:43;7.07;;;2.08;;
48849;SDS011;63210;53.370;6.770;2022-09-09T12:32:15;5.78;;;1.75;;
48849;SDS011;63210;53.370;6.770;2022-09-09T12:34:50;5.83;;;1.57;;
48849;SDS011;63210;53.370;6.770;2022-09-09T12:39:49;5.55;;;1.67;;
48849;SDS011;63210;53.370;6.770;2022-09-09T12:42:20;6.72;;;1.70;;
48849;SDS011;63210;53.370;6.770;2022-09-09T12:44:52;6.72;;;1.60;;
48849;SDS011;63210;53.370;6.770;2022-09-09T12:47:17;6.78;;;1.67;;
48849;SDS011;63210;53.370;6.770;2022-09-09T12:49:43;8.70;;;2.10;;
48849;SDS011;63210;53.370;6.770;2022-09-09T12:52:14;4.07;;;1.60;;
48849;SDS011;63210;53.370;6.770;2022-09-09T12:54:43;6.95;;;1.83;;
48849;SDS011;63210;53.370;6.770;2022-09-09T12:57:10;5.05;;;1.67;;
48849;SDS011;63210;53.370;6.770;2022-09-09T12:59:37;7.07;;;1.67;;
48849;SDS011;63210;53.370;6.770;2022-09-09T13:02:11;6.72;;;2.60;;
48849;SDS011;63210;53.370;6.770;2022-09-09T13:04:36;4.72;;;1.60;;
48849;SDS011;63210;53.370;6.770;2022-09-09T13:07:05;3.23;;;1.20;;
48849;SDS011;63210;53.370;6.770;2022-09-09T13:09:31;4.40;;;1.30;;
48849;SDS011;63210;53.370;6.770;2022-09-09T13:11:57;5.35;;;1.50;;
48849;SDS011;63210;53.370;6.770;2022-09-09T13:14:30;5.82;;;1.58;;
48849;SDS011;63210;53.370;6.770;2022-09-09T13:17:00;5.70;;;1.80;;
48849;SDS011;63210;53.370;6.770;2022-09-09T13:19:26;6.30;;;1.73;;
48849;SDS011;63210;53.370;6.770;2022-09-09T13:21:53;7.47;;;2.17;;
48849;SDS011;63210;53.370;6.770;2022-09-09T13:24:30;7.00;;;1.90;;
48849;SDS011;63210;53.370;6.770;2022-09-09T13:26:57;5.13;;;1.50;;
48849;SDS011;63210;53.370;6.770;2022-09-09T13:29:22;6.10;;;1.63;;
48849;SDS011;63210;53.370;6.770;2022-09-09T13:31:47;4.55;;;1.58;;
48849;SDS011;63210;53.370;6.770;2022-09-09T13:34:22;9.90;;;2.33;;
48849;SDS011;63210;53.370;6.770;2022-09-09T13:36:52;6.28;;;1.60;;
48849;SDS011;63210;53.370;6.770;2022-09-09T13:39:19;4.57;;;1.63;;
48849;SDS011;63210;53.370;6.770;2022-09-09T13:41:45;6.35;;;1.70;;
48849;SDS011;63210;53.370;6.770;2022-09-09T13:44:21;7.10;;;1.48;;
48849;SDS011;63210;53.370;6.770;2022-09-09T13:46:58;7.03;;;1.80;;
48849;SDS011;63210;53.370;6.770;2022-09-09T13:49:24;4.80;;;1.48;;
48849;SDS011;63210;53.370;6.770;2022-09-09T13:52:02;5.18;;;1.33;;
48849;SDS011;63210;53.370;6.770;2022-09-09T13:54:28;5.38;;;1.85;;
48849;SDS011;63210;53.370;6.770;2022-09-09T13:56:53;4.80;;;1.33;;
48849;SDS011;63210;53.370;6.770;2022-09-09T13:59:20;5.80;;;1.27;;
48849;SDS011;63210;53.370;6.770;2022-09-09T14:01:46;4.63;;;1.58;;
48849;SDS011;63210;53.370;6.770;2022-09-09T14:04:11;4.37;;;1.33;;
48849;SDS011;63210;53.370;6.770;2022-09-09T14:06:37;6.07;;;2.58;;
48849;SDS011;63210;53.370;6.770;2022-09-09T14:09:03;4.60;;;1.48;;
48849;SDS011;63210;53.370;6.770;2022-09-09T14:11:29;6.95;;;1.23;;
48849;SDS011;63210;53.370;6.770;2022-09-09T14:13:54;5.20;;;1.30;;
48849;SDS011;63210;53.370;6.770;2022-09-09T14:16:19;4.07;;;1.13;;
48849;SDS011;63210;53.370;6.770;2022-09-09T14:18:46;5.43;;;1.40;;
48849;SDS011;63210;53.370;6.770;2022-09-09T14:21:12;5.43;;;1.30;;
48849;SDS011;63210;53.370;6.770;2022-09-09T14:23:37;5.28;;;1.42;;
48849;SDS011;63210;53.370;6.770;2022-09-09T14:26:03;5.82;;;1.35;;
48849;SDS011;63210;53.370;6.770;2022-09-09T14:28:28;6.75;;;2.70;;
48849;SDS011;63210;53.370;6.770;2022-09-09T14:30:54;8.63;;;1.88;;
48849;SDS011;63210;53.370;6.770;2022-09-09T14:33:19;9.00;;;2.20;;
48849;SDS011;63210;53.370;6.770;2022-09-09T14:35:45;11.68;;;2.25;;
48849;SDS011;63210;53.370;6.770;2022-09-09T14:38:10;8.73;;;2.10;;
48849;SDS011;63210;53.370;6.770;2022-09-09T14:40:36;6.88;;;1.75;;
48849;SDS011;63210;53.370;6.770;2022-09-09T14:43:02;4.80;;;2.00;;
48849;SDS011;63210;53.370;6.770;2022-09-09T14:45:27;8.60;;;2.40;;
48849;SDS011;63210;53.370;6.770;2022-09-09T14:47:53;7.85;;;2.10;;
48849;SDS011;63210;53.370;6.770;2022-09-09T14:50:19;4.32;;;2.10;;
48849;SDS011;63210;53.370;6.770;2022-09-09T14:52:44;9.18;;;3.08;;
48849;SDS011;63210;53.370;6.770;2022-09-09T14:55:09;6.93;;;2.30;;
48849;SDS011;63210;53.370;6.770;2022-09-09T14:57:35;4.82;;;1.58;;
48849;SDS011;63210;53.370;6.770;2022-09-09T15:00:02;4.97;;;1.65;;
48849;SDS011;63210;53.370;6.770;2022-09-09T15:02:27;5.85;;;1.77;;
48849;SDS011;63210;53.370;6.770;2022-09-09T15:04:54;4.43;;;1.70;;
48849;SDS011;63210;53.370;6.770;2022-09-09T15:07:22;5.32;;;1.67;;
48849;SDS011;63210;53.370;6.770;2022-09-09T15:09:47;6.20;;;1.95;;
48849;SDS011;63210;53.370;6.770;2022-09-09T15:12:13;5.05;;;1.63;;
48849;SDS011;63210;53.370;6.770;2022-09-09T15:14:39;5.85;;;1.95;;
48849;SDS011;63210;53.370;6.770;2022-09-09T15:17:04;4.53;;;1.80;;
48849;SDS011;63210;53.370;6.770;2022-09-09T15:19:30;8.65;;;1.85;;
48849;SDS011;63210;53.370;6.770;2022-09-09T15:21:56;5.68;;;2.05;;
48849;SDS011;63210;53.370;6.770;2022-09-09T15:24:22;8.85;;;2.60;;
48849;SDS011;63210;53.370;6.770;2022-09-09T15:26:47;24.15;;;4.28;;
48849;SDS011;63210;53.370;6.770;2022-09-09T15:29:13;8.40;;;2.40;;
48849;SDS011;63210;53.370;6.770;2022-09-09T15:31:38;16.15;;;3.25;;
48849;SDS011;63210;53.370;6.770;2022-09-09T15:34:04;9.33;;;3.00;;
48849;SDS011;63210;53.370;6.770;2022-09-09T15:36:31;7.05;;;2.47;;
48849;SDS011;63210;53.370;6.770;2022-09-09T15:38:57;7.53;;;2.72;;
48849;SDS011;63210;53.370;6.770;2022-09-09T15:41:23;9.18;;;2.90;;
48849;SDS011;63210;53.370;6.770;2022-09-09T15:43:49;13.15;;;2.60;;
48849;SDS011;63210;53.370;6.770;2022-09-09T15:48:48;9.23;;;2.95;;
48849;SDS011;63210;53.370;6.770;2022-09-09T15:51:13;5.40;;;2.38;;
48849;SDS011;63210;53.370;6.770;2022-09-09T15:53:38;9.43;;;2.83;;
48849;SDS011;63210;53.370;6.770;2022-09-09T15:56:07;5.18;;;2.47;;
48849;SDS011;63210;53.370;6.770;2022-09-09T15:58:33;4.78;;;2.05;;
48849;SDS011;63210;53.370;6.770;2022-09-09T16:01:02;5.40;;;1.80;;
48849;SDS011;63210;53.370;6.770;2022-09-09T16:03:29;3.35;;;1.80;;
48849;SDS011;63210;53.370;6.770;2022-09-09T16:05:54;6.65;;;1.98;;
48849;SDS011;63210;53.370;6.770;2022-09-09T16:08:20;7.17;;;2.20;;
48849;SDS011;63210;53.370;6.770;2022-09-09T16:10:45;12.57;;;3.13;;
48849;SDS011;63210;53.370;6.770;2022-09-09T16:13:11;11.02;;;3.13;;
48849;SDS011;63210;53.370;6.770;2022-09-09T16:15:39;8.13;;;2.60;;
48849;SDS011;63210;53.370;6.770;2022-09-09T16:18:04;7.20;;;3.60;;
48849;SDS011;63210;53.370;6.770;2022-09-09T16:20:29;9.65;;;2.42;;
48849;SDS011;63210;53.370;6.770;2022-09-09T16:22:55;4.72;;;2.00;;
48849;SDS011;63210;53.370;6.770;2022-09-09T16:25:22;5.70;;;1.85;;